Time;durP1;ratioP1;P1;durP2;ratioP2;P2;SDS_P1;SDS_P2;PMS_P1;PMS_P2;Temp;Humidity;BMP_temperature;BMP_pressure;BME280_temperature;BME280_humidity;BME280_pressure;Samples;Min_cycle;Max_cycle;Signal;HPM_P1;HPM_P2
2022/08/19 00:01:08;;;;;;;12.90;10.00;;;;;;;21.05;76.52;100125.86;90035;1273;99010;-60
2022/08/19 00:03:18;;;;;;;10.00;9.00;;;;;;;21.14;76.56;100129.61;90020;1272;87868;-60
2022/08/19 00:05:27;;;;;;;11.90;9.10;;;;;;;21.21;76.41;100132.89;90011;1273;94398;-60
2022/08/19 00:07:37;;;;;;;10.60;8.60;;;;;;;21.21;76.27;100129.38;90039;1272;81783;-59
2022/08/19 00:09:46;;;;;;;10.70;8.50;;;;;;;21.20;76.21;100125.69;90058;1272;83066;-60
2022/08/19 00:11:58;;;;;;;10.50;9.20;;;;;;;21.20;76.21;100124.98;90053;1272;98834;-60
2022/08/19 00:14:09;;;;;;;11.40;9.00;;;;;;;21.15;76.27;100129.67;90043;1272;89042;-60
2022/08/19 00:16:19;;;;;;;9.90;8.90;;;;;;;21.13;76.38;100125.49;90026;1272;93791;-60
2022/08/19 00:18:28;;;;;;;11.00;9.60;;;;;;;21.18;76.23;100131.44;90025;1272;81014;-60
2022/08/19 00:20:40;;;;;;;12.40;9.30;;;;;;;21.14;76.31;100128.08;90066;1272;81730;-60
2022/08/19 00:22:49;;;;;;;9.10;8.20;;;;;;;21.13;76.16;100126.91;90012;1272;99290;-60
2022/08/19 00:24:57;;;;;;;11.60;8.80;;;;;;;21.08;76.32;100123.90;90031;1272;86707;-60
2022/08/19 00:27:06;;;;;;;11.20;9.10;;;;;;;21.04;76.11;100125.79;90035;1272;92870;-60
2022/08/19 00:29:18;;;;;;;11.40;8.40;;;;;;;21.02;76.21;100129.62;90012;1272;82329;-60
2022/08/19 00:31:27;;;;;;;12.50;9.40;;;;;;;21.02;76.24;100132.07;90039;1272;82298;-60
2022/08/19 00:33:36;;;;;;;10.40;9.20;;;;;;;20.94;76.26;100130.37;90042;1272;98370;-60
2022/08/19 00:35:45;;;;;;;11.60;9.40;;;;;;;20.93;76.49;100131.25;90054;1272;86769;-60
2022/08/19 00:37:54;;;;;;;10.10;9.00;;;;;;;20.95;76.28;100132.19;90012;1272;94868;-60
2022/08/19 00:40:04;;;;;;;9.60;8.40;;;;;;;20.94;76.35;100130.53;90030;1272;80477;-60
2022/08/19 00:42:15;;;;;;;10.20;9.00;;;;;;;20.97;76.43;100130.66;90034;1272;82242;-60
2022/08/19 00:44:28;;;;;;;9.90;8.70;;;;;;;20.99;76.34;100131.67;90026;1272;99655;-60
2022/08/19 00:46:39;;;;;;;10.20;8.70;;;;;;;21.03;76.65;100133.30;90048;1272;87573;-60
2022/08/19 00:48:48;;;;;;;17.60;9.10;;;;;;;21.13;76.46;100129.21;90039;1272;94909;-60
2022/08/19 00:50:57;;;;;;;10.20;9.30;;;;;;;21.22;76.21;100131.70;90015;1272;79214;-60
2022/08/19 00:53:07;;;;;;;12.40;8.80;;;;;;;21.27;76.23;100129.19;90043;1272;81801;-60
2022/08/19 00:55:19;;;;;;;11.20;8.50;;;;;;;21.30;76.08;100128.61;90026;1272;99037;-60
2022/08/19 00:57:36;;;;;;;11.30;8.60;;;;;;;21.31;76.06;100124.33;90008;1272;89066;-59
2022/08/19 00:59:52;;;;;;;10.20;9.00;;;;;;;21.28;75.89;100125.90;90036;1272;94936;-59
2022/08/19 01:02:01;;;;;;;10.30;8.90;;;;;;;21.22;75.98;100129.50;90022;1272;81575;-60
2022/08/19 01:04:10;;;;;;;11.80;9.20;;;;;;;21.21;75.95;100131.73;90038;1272;82311;-60
2022/08/19 01:06:19;;;;;;;9.60;8.50;;;;;;;21.18;75.89;100133.10;90080;1271;98637;-60
2022/08/19 01:08:27;;;;;;;11.30;9.00;;;;;;;21.15;76.14;100138.73;90124;1271;88088;-60
2022/08/19 01:10:41;;;;;;;10.60;9.40;;;;;;;21.12;76.08;100140.36;90082;1272;93814;-60
2022/08/19 01:12:51;;;;;;;11.20;9.20;;;;;;;21.07;76.03;100136.09;90085;1271;81293;-60
2022/08/19 01:15:00;;;;;;;11.50;8.80;;;;;;;21.01;76.11;100136.68;90106;1271;82790;-60
2022/08/19 01:17:10;;;;;;;10.40;8.70;;;;;;;21.00;76.12;100139.96;90099;1272;99133;-60
2022/08/19 01:19:26;;;;;;;12.00;8.50;;;;;;;20.96;76.25;100140.65;90095;1271;87596;-60
2022/08/19 01:21:42;;;;;;;12.00;9.10;;;;;;;20.91;76.44;100146.52;89996;1273;94469;-60
2022/08/19 01:23:51;;;;;;;11.30;8.80;;;;;;;20.89;76.50;100146.11;90110;1272;79320;-60
2022/08/19 01:26:00;;;;;;;9.90;8.80;;;;;;;20.83;76.85;100142.42;90131;1272;81274;-60
2022/08/19 01:28:09;;;;;;;9.70;8.80;;;;;;;20.80;76.71;100141.45;90104;1271;98605;-60
2022/08/19 01:30:22;;;;;;;10.10;8.50;;;;;;;20.78;76.73;100145.41;90109;1272;87239;-60
2022/08/19 01:32:31;;;;;;;10.80;8.60;;;;;;;20.75;76.75;100145.98;90091;1272;93667;-60
2022/08/19 01:34:40;;;;;;;11.10;8.80;;;;;;;20.72;76.91;100143.33;90108;1271;81503;-60
2022/08/19 01:36:50;;;;;;;9.90;8.90;;;;;;;20.68;77.19;100144.39;90163;1270;82435;-60
2022/08/19 01:38:59;;;;;;;10.20;8.90;;;;;;;20.64;77.16;100140.23;90122;1271;99957;-60
2022/08/19 01:41:08;;;;;;;10.40;9.00;;;;;;;20.57;77.37;100144.56;90134;1270;88892;-60
2022/08/19 01:43:18;;;;;;;12.30;9.30;;;;;;;20.54;77.45;100141.75;90111;1272;93981;-60
2022/08/19 01:45:31;;;;;;;12.10;9.20;;;;;;;20.52;77.43;100136.13;90096;1271;80643;-60
2022/08/19 01:47:40;;;;;;;11.40;8.50;;;;;;;20.50;77.63;100132.21;90136;1271;81558;-60
2022/08/19 01:49:49;;;;;;;9.40;8.40;;;;;;;20.50;77.56;100128.38;90131;1271;99180;-60
2022/08/19 01:52:00;;;;;;;13.80;8.90;;;;;;;20.50;77.58;100129.84;90151;1271;87454;-60
2022/08/19 01:54:09;;;;;;;11.10;9.50;;;;;;;20.53;77.63;100126.37;90107;1270;93948;-60
2022/08/19 01:56:19;;;;;;;11.90;8.60;;;;;;;20.56;77.56;100123.42;90100;1270;79615;-60
2022/08/19 01:58:35;;;;;;;12.50;9.30;;;;;;;20.58;77.57;100122.40;90108;1272;80570;-60
2022/08/19 02:00:46;;;;;;;13.50;9.90;;;;;;;20.58;77.56;100120.70;90068;1270;98984;-60
2022/08/19 02:02:55;;;;;;;11.10;9.60;;;;;;;20.59;77.41;100124.39;90158;1270;88553;-60
2022/08/19 02:05:04;;;;;;;40.00;31.40;;;;;;;20.58;77.32;100127.77;90083;1271;95051;-60
2022/08/19 02:07:12;;;;;;;12.00;10.80;;;;;;;20.54;77.48;100130.11;90107;1271;82306;-60
2022/08/19 02:09:21;;;;;;;11.60;10.20;;;;;;;20.48;77.58;100127.73;90165;1271;80608;-60
2022/08/19 02:11:33;;;;;;;12.60;10.80;;;;;;;20.44;77.50;100128.63;90121;1271;98105;-60
2022/08/19 02:13:42;;;;;;;12.60;11.40;;;;;;;20.40;77.58;100128.54;90112;1270;87306;-59
2022/08/19 02:15:51;;;;;;;11.50;9.50;;;;;;;20.37;77.57;100128.63;90120;1271;93640;-60
2022/08/19 02:17:59;;;;;;;12.30;9.40;;;;;;;20.33;77.59;100126.95;90095;1271;82151;-60
2022/08/19 02:20:10;;;;;;;10.50;9.40;;;;;;;20.32;77.72;100126.05;90121;1270;80770;-60
2022/08/19 02:22:19;;;;;;;10.60;9.50;;;;;;;20.31;77.71;100122.86;90128;1272;98094;-59
2022/08/19 02:24:28;;;;;;;10.80;9.70;;;;;;;20.29;77.72;100122.30;90117;1271;88458;-59
2022/08/19 02:26:37;;;;;;;11.10;10.00;;;;;;;20.30;77.69;100118.52;90117;1270;93888;-60
2022/08/19 02:28:48;;;;;;;10.40;9.30;;;;;;;20.31;77.80;100116.60;90002;1272;81188;-60
2022/08/19 02:30:56;;;;;;;12.50;9.70;;;;;;;20.34;77.74;100115.42;90149;1271;81467;-60
2022/08/19 02:33:05;;;;;;;10.80;9.00;;;;;;;20.38;77.65;100110.75;90133;1272;98625;-60
2022/08/19 02:35:15;;;;;;;12.80;10.00;;;;;;;20.42;77.67;100107.29;90134;1272;88319;-60
2022/08/19 02:39:50;;;;;;;12.50;10.70;;;;;;;20.47;77.80;100110.23;90109;1271;81470;-60
2022/08/19 02:41:59;;;;;;;13.30;10.90;;;;;;;20.46;77.65;100113.89;90129;1272;82257;-60
2022/08/19 02:44:08;;;;;;;10.90;9.80;;;;;;;20.45;77.65;100115.52;90109;1272;99432;-60
2022/08/19 02:46:21;;;;;;;10.60;9.70;;;;;;;20.42;77.74;100115.17;90105;1271;87562;-60
2022/08/19 02:48:32;;;;;;;11.40;10.20;;;;;;;20.38;77.75;100120.23;90087;1271;93897;-60
2022/08/19 02:50:43;;;;;;;12.10;9.30;;;;;;;20.33;77.59;100122.99;90095;1270;81832;-60
2022/08/19 02:52:52;;;;;;;10.90;9.40;;;;;;;20.31;77.62;100124.84;90100;1271;82278;-59
2022/08/19 02:55:01;;;;;;;10.60;9.50;;;;;;;20.27;77.74;100128.14;90128;1271;98221;-59
2022/08/19 02:57:09;;;;;;;13.40;9.60;;;;;;;20.25;77.81;100124.23;90098;1271;88468;-59
2022/08/19 02:59:18;;;;;;;10.60;9.40;;;;;;;20.26;77.77;100120.23;90068;1271;94402;-59
2022/08/19 03:01:29;;;;;;;11.30;9.70;;;;;;;20.26;77.77;100114.91;90084;1272;82316;-60
2022/08/19 03:03:38;;;;;;;12.60;10.20;;;;;;;20.26;77.74;100111.18;90115;1272;80658;-60
2022/08/19 03:05:48;;;;;;;11.60;10.40;;;;;;;20.24;77.88;100114.10;90128;1272;97329;-60
2022/08/19 03:07:57;;;;;;;11.30;9.70;;;;;;;20.22;77.79;100118.29;90104;1272;88076;-60
2022/08/19 03:10:06;;;;;;;12.10;10.40;;;;;;;20.20;77.72;100118.77;90091;1272;94660;-60
2022/08/19 03:12:15;;;;;;;11.00;9.90;;;;;;;20.18;77.64;100119.55;90100;1271;81199;-60
2022/08/19 03:14:24;;;;;;;10.60;9.60;;;;;;;20.17;77.88;100121.86;90122;1271;82424;-60
2022/08/19 03:16:40;;;;;;;11.70;9.30;;;;;;;20.12;78.00;100120.88;90094;1272;98941;-60
2022/08/19 03:18:49;;;;;;;10.90;9.50;;;;;;;20.09;78.06;100117.13;90111;1270;87349;-60
2022/08/19 03:20:58;;;;;;;12.10;10.00;;;;;;;20.10;78.07;100112.63;90096;1271;94579;-60
2022/08/19 03:23:07;;;;;;;11.30;10.10;;;;;;;20.13;78.09;100109.05;90080;1271;81539;-60
2022/08/19 03:25:16;;;;;;;11.40;10.20;;;;;;;20.17;78.34;100107.70;90008;1272;82662;-60
2022/08/19 03:27:25;;;;;;;12.90;10.00;;;;;;;20.21;78.28;100105.66;90095;1271;99711;-59
2022/08/19 03:29:38;;;;;;;12.30;10.20;;;;;;;20.20;78.39;100113.27;90123;1271;86296;-59
2022/08/19 03:31:47;;;;;;;12.20;9.40;;;;;;;20.19;78.41;100118.80;90079;1270;95020;-60
2022/08/19 03:33:56;;;;;;;12.60;10.40;;;;;;;20.19;78.37;100125.01;90078;1272;82008;-60
2022/08/19 03:36:09;;;;;;;13.50;10.00;;;;;;;20.19;78.56;100129.63;90122;1271;81509;-60
2022/08/19 03:38:18;;;;;;;11.90;10.10;;;;;;;20.23;78.44;100125.44;90104;1271;98927;-60
2022/08/19 03:40:29;;;;;;;12.00;10.30;;;;;;;20.25;78.49;100126.15;90085;1270;86841;-60
2022/08/19 03:42:38;;;;;;;11.60;10.40;;;;;;;20.26;78.48;100124.13;90082;1271;94594;-60
2022/08/19 03:44:47;;;;;;;12.50;10.30;;;;;;;20.30;78.67;100123.51;90057;1271;81707;-60
2022/08/19 03:46:59;;;;;;;12.50;10.10;;;;;;;20.38;78.71;100126.23;90116;1271;80761;-60
2022/08/19 03:49:08;;;;;;;13.10;10.70;;;;;;;20.46;78.70;100128.33;89791;1271;97947;-59
2022/08/19 03:51:24;;;;;;;11.60;9.70;;;;;;;20.48;78.66;100133.94;90094;1270;88630;-60
2022/08/19 03:53:35;;;;;;;15.30;10.30;;;;;;;20.50;78.57;100135.34;90090;1270;94438;-60
2022/08/19 03:55:45;;;;;;;10.40;9.10;;;;;;;20.54;78.74;100140.31;90080;1270;80822;-60
2022/08/19 03:57:54;;;;;;;13.90;10.10;;;;;;;20.59;78.55;100143.82;90110;1271;80976;-60
2022/08/19 04:00:05;;;;;;;10.80;9.60;;;;;;;20.65;78.52;100142.50;90089;1271;98660;-60
2022/08/19 04:02:15;;;;;;;10.90;9.10;;;;;;;20.70;78.51;100143.64;90104;1271;88777;-60
2022/08/19 04:04:25;;;;;;;10.90;9.10;;;;;;;20.73;78.61;100142.45;90079;1271;95566;-60
2022/08/19 04:06:38;;;;;;;11.80;8.60;;;;;;;20.81;78.70;100145.37;90082;1272;79938;-60
2022/08/19 04:08:50;;;;;;;12.60;9.40;;;;;;;20.90;78.62;100143.42;90107;1271;83115;-60
2022/08/19 04:10:58;;;;;;;11.00;9.10;;;;;;;21.01;78.76;100135.48;90107;1270;99373;-60
2022/08/19 04:13:08;;;;;;;9.90;8.90;;;;;;;21.14;78.53;100131.54;90107;1271;87263;-60
2022/08/19 04:15:18;;;;;;;10.60;9.00;;;;;;;21.23;78.56;100131.15;90064;1271;95146;-60
2022/08/19 04:17:27;;;;;;;10.10;9.10;;;;;;;21.32;78.54;100131.65;90080;1271;80136;-60
2022/08/19 04:19:38;;;;;;;10.30;9.10;;;;;;;21.40;78.24;100130.48;90129;1271;80623;-60
2022/08/19 04:21:48;;;;;;;13.60;9.00;;;;;;;21.46;78.32;100127.27;90104;1272;99594;-60
2022/08/19 04:23:58;;;;;;;12.30;8.90;;;;;;;21.57;78.26;100121.65;90110;1270;87368;-60
2022/08/19 04:26:07;;;;;;;9.50;8.60;;;;;;;21.72;78.15;100123.15;90086;1270;95028;-60
2022/08/19 04:28:16;;;;;;;10.10;8.50;;;;;;;21.84;78.01;100122.77;90103;1270;81340;-60
2022/08/19 04:30:26;;;;;;;11.10;8.80;;;;;;;21.95;78.23;100129.44;90123;1270;82122;-60
2022/08/19 04:32:35;;;;;;;9.90;8.70;;;;;;;22.07;78.15;100134.75;90090;1270;98597;-60
2022/08/19 04:34:44;;;;;;;10.20;8.70;;;;;;;22.16;77.98;100132.45;90105;1272;87717;-60
2022/08/19 04:36:54;;;;;;;10.90;8.10;;;;;;;22.27;77.93;100133.81;90095;1272;94590;-60
2022/08/19 04:39:07;;;;;;;10.10;8.40;;;;;;;22.47;78.06;100133.56;90091;1271;82147;-60
2022/08/19 04:43:44;;;;;;;10.90;9.50;;;;;;;23.94;77.16;100136.94;90107;1271;99787;-59
2022/08/19 04:45:54;;;;;;;12.30;10.30;;;;;;;25.10;76.54;100128.78;90108;1271;87954;-59
2022/08/19 04:48:03;;;;;;;11.60;9.80;;;;;;;26.11;73.27;100123.59;90095;1272;92765;-59
2022/08/19 04:50:13;;;;;;;11.70;10.30;;;;;;;26.79;72.58;100112.86;90096;1272;79173;-59
2022/08/19 04:52:21;;;;;;;10.90;9.90;;;;;;;27.54;71.11;100110.04;90151;1270;81716;-60
2022/08/19 04:54:30;;;;;;;11.50;9.70;;;;;;;28.17;69.84;100109.58;90141;1272;99355;-60
2022/08/19 04:56:40;;;;;;;11.00;10.00;;;;;;;28.72;68.14;100113.48;90117;1271;87693;-60
2022/08/19 04:58:50;;;;;;;11.70;8.90;;;;;;;29.05;67.16;100115.98;90087;1270;95448;-60
2022/08/19 05:00:59;;;;;;;11.80;9.10;;;;;;;29.72;66.40;100114.31;90074;1270;80388;-59
2022/08/19 05:03:08;;;;;;;10.60;8.90;;;;;;;30.07;64.65;100111.58;90118;1270;81935;-59
2022/08/19 05:05:17;;;;;;;12.20;9.20;;;;;;;29.48;63.58;100112.81;90105;1272;98341;-60
2022/08/19 05:07:26;;;;;;;10.60;9.20;;;;;;;28.74;63.11;100115.26;90120;1272;87704;-60
2022/08/19 05:09:35;;;;;;;12.00;9.20;;;;;;;28.10;62.99;100113.48;90110;1272;94117;-59
2022/08/19 05:11:43;;;;;;;10.90;9.20;;;;;;;27.61;63.35;100111.03;90116;1271;79517;-59
2022/08/19 05:13:53;;;;;;;14.30;9.50;;;;;;;27.18;63.82;100113.90;90127;1271;81898;-59
2022/08/19 05:16:02;;;;;;;11.30;9.10;;;;;;;26.86;63.99;100113.69;90133;1271;100102;-60
2022/08/19 05:23:20;;;;;;;10.00;8.30;;;;;;;26.06;65.34;100118.73;89830;1276;80530;-60
2022/08/19 05:25:30;;;;;;;11.10;8.40;;;;;;;25.88;65.57;100125.88;89844;1276;81213;-59
2022/08/19 05:27:39;;;;;;;9.70;8.70;;;;;;;25.74;65.89;100129.66;89854;1276;99730;-60
2022/08/19 05:29:48;;;;;;;11.30;8.20;;;;;;;25.83;66.20;100131.55;90128;1270;88993;-60
2022/08/19 05:31:58;;;;;;;9.70;8.80;;;;;;;26.22;66.39;100130.96;90121;1271;94445;-60
2022/08/19 05:34:07;;;;;;;10.10;8.80;;;;;;;27.26;65.71;100128.33;90112;1270;80184;-60
2022/08/19 05:36:16;;;;;;;12.80;9.00;;;;;;;28.82;64.76;100131.13;90125;1270;83306;-60
2022/08/19 05:38:26;;;;;;;9.90;8.20;;;;;;;30.30;63.11;100123.36;90126;1271;99496;-60
2022/08/19 05:40:36;;;;;;;13.40;9.10;;;;;;;31.59;60.91;100126.79;90128;1271;87959;-60
2022/08/19 05:42:45;;;;;;;12.70;8.00;;;;;;;32.47;59.89;100133.67;90123;1270;93191;-60
2022/08/19 05:44:55;;;;;;;11.10;8.10;;;;;;;33.40;58.19;100139.60;90084;1270;80580;-61
2022/08/19 05:47:08;;;;;;;10.30;8.30;;;;;;;34.06;56.40;100140.58;90121;1270;82973;-60
2022/08/19 05:49:18;;;;;;;11.60;8.10;;;;;;;34.60;54.31;100138.38;90094;1271;99558;-60
2022/08/19 05:51:26;;;;;;;8.50;7.60;;;;;;;34.87;53.15;100140.05;90114;1270;88716;-60
2022/08/19 05:53:36;;;;;;;8.50;7.70;;;;;;;35.18;52.35;100143.91;90092;1270;94523;-60
2022/08/19 05:55:44;;;;;;;10.40;8.10;;;;;;;35.46;50.52;100136.73;90102;1270;80047;-60
2022/08/19 05:57:53;;;;;;;10.30;7.70;;;;;;;35.71;50.29;100133.60;90132;1270;81992;-60
2022/08/19 06:00:04;;;;;;;10.10;7.10;;;;;;;35.90;49.36;100127.67;90113;1270;97516;-60
2022/08/19 06:02:13;;;;;;;10.30;7.70;;;;;;;36.33;48.79;100121.93;90103;1270;89142;-60
2022/08/19 06:04:23;;;;;;;9.20;7.20;;;;;;;36.91;47.11;100123.02;90114;1270;93512;-60
2022/08/19 06:06:33;;;;;;;9.60;7.50;;;;;;;37.39;46.12;100126.79;90121;1270;79800;-60
2022/08/19 06:08:42;;;;;;;8.60;6.90;;;;;;;37.50;46.05;100122.19;90134;1270;82876;-61
2022/08/19 06:10:51;;;;;;;7.70;6.90;;;;;;;37.89;44.59;100113.98;90120;1270;98994;-61
2022/08/19 06:13:00;;;;;;;8.70;7.40;;;;;;;38.08;44.24;100110.98;90142;1270;88176;-61
2022/08/19 06:15:13;;;;;;;10.80;7.00;;;;;;;38.46;42.50;100110.80;90094;1271;94938;-61
2022/08/19 06:17:24;;;;;;;9.70;7.00;;;;;;;38.46;41.34;100116.88;90118;1271;78801;-60
2022/08/19 06:19:34;;;;;;;9.20;7.30;;;;;;;38.61;41.33;100115.04;90139;1270;81887;-60
2022/08/19 06:21:46;;;;;;;8.00;6.40;;;;;;;38.93;40.16;100123.52;90116;1271;99986;-60
2022/08/19 06:23:55;;;;;;;9.80;6.60;;;;;;;39.41;40.01;100131.24;90120;1270;86388;-60
2022/08/19 06:26:03;;;;;;;10.50;6.30;;;;;;;39.76;39.96;100134.08;90115;1270;95436;-60
2022/08/19 06:28:12;;;;;;;10.80;6.30;;;;;;;40.10;39.62;100135.33;90088;1271;80088;-60
2022/08/19 06:30:22;;;;;;;7.90;6.10;;;;;;;40.29;38.32;100130.12;90131;1270;82130;-60
2022/08/19 06:32:31;;;;;;;8.90;6.50;;;;;;;40.31;38.01;100129.97;90116;1271;97194;-59
2022/08/19 06:34:41;;;;;;;7.90;6.60;;;;;;;40.48;37.05;100127.80;90127;1271;88897;-59
2022/08/19 06:36:53;;;;;;;9.70;6.90;;;;;;;40.50;37.41;100134.63;90109;1270;95003;-60
2022/08/19 06:39:00;;;;;;;;;;;;;;;40.64;36.46;100137.12;90126;1270;79617;-59
2022/08/19 06:41:09;;;;;;;7.20;6.50;;;;;;;40.59;35.72;100135.16;90144;1271;82144;-59
2022/08/19 06:43:18;;;;;;;7.50;6.40;;;;;;;40.59;35.53;100136.13;90119;1270;97785;-59
2022/08/19 06:45:27;;;;;;;8.40;6.30;;;;;;;40.88;35.63;100139.16;90116;1270;86629;-59
2022/08/19 06:47:36;;;;;;;9.30;6.50;;;;;;;41.07;35.15;100139.33;90114;1271;93881;-60
2022/08/19 06:49:46;;;;;;;11.40;6.60;;;;;;;41.26;34.56;100137.52;90110;1270;80921;-59
2022/08/19 06:51:56;;;;;;;7.60;6.20;;;;;;;41.36;34.37;100136.90;90147;1270;82579;-60
2022/08/19 06:54:05;;;;;;;7.30;6.50;;;;;;;40.89;34.28;100134.56;90134;1271;98690;-60
2022/08/19 06:56:14;;;;;;;8.80;7.10;;;;;;;40.54;34.11;100133.77;90125;1270;89063;-60
2022/08/19 06:58:23;;;;;;;8.40;6.60;;;;;;;40.33;33.62;100128.13;90103;1271;94878;-60
2022/08/19 07:00:32;;;;;;;6.80;5.80;;;;;;;39.62;33.91;100130.47;90092;1272;79042;-60
2022/08/19 07:02:40;;;;;;;11.00;6.50;;;;;;;38.99;34.20;100130.84;90138;1270;82560;-60
2022/08/19 07:04:49;;;;;;;8.00;6.70;;;;;;;38.38;34.58;100131.73;90094;1271;98482;-61
2022/08/19 07:07:06;;;;;;;9.10;6.80;;;;;;;38.18;35.01;100129.52;90115;1270;88242;-60
2022/08/19 07:09:19;;;;;;;7.70;6.30;;;;;;;37.43;35.05;100133.23;90108;1270;95507;-60
2022/08/19 07:11:28;;;;;;;11.90;6.60;;;;;;;36.51;36.13;100141.23;90001;1273;80092;-60
2022/08/19 07:13:37;;;;;;;9.60;6.60;;;;;;;35.57;37.53;100148.17;90121;1271;83211;-59
2022/08/19 07:15:47;;;;;;;9.70;6.90;;;;;;;35.10;38.17;100149.04;90109;1271;98776;-60
2022/08/19 07:17:55;;;;;;;8.60;6.70;;;;;;;34.90;38.51;100149.20;90106;1271;88192;-60
2022/08/19 07:20:06;;;;;;;8.80;7.70;;;;;;;35.98;38.87;100150.58;90082;1271;94646;-60
2022/08/19 07:22:15;;;;;;;10.30;6.60;;;;;;;36.91;37.74;100150.48;90113;1270;80860;-60
2022/08/19 07:24:25;;;;;;;16.20;7.30;;;;;;;37.48;36.34;100149.94;90140;1271;81339;-60
2022/08/19 07:26:43;;;;;;;10.10;6.60;;;;;;;37.54;36.30;100146.98;90110;1272;98331;-60
2022/08/19 07:28:52;;;;;;;8.50;6.40;;;;;;;37.86;36.08;100142.13;90109;1270;89031;-60
2022/08/19 07:31:03;;;;;;;7.70;6.20;;;;;;;38.12;36.05;100131.75;90099;1270;94631;-60
2022/08/19 07:33:12;;;;;;;9.00;6.40;;;;;;;38.33;36.04;100128.70;90083;1270;78784;-60
2022/08/19 07:35:21;;;;;;;7.10;6.40;;;;;;;38.43;35.36;100127.14;90108;1270;80579;-60
2022/08/19 07:37:30;;;;;;;7.50;5.80;;;;;;;38.51;34.83;100117.89;90110;1271;98581;-60
2022/08/19 07:39:40;;;;;;;6.60;5.90;;;;;;;38.65;35.01;100117.36;90116;1271;87596;-60
2022/08/19 07:41:51;;;;;;;9.00;6.20;;;;;;;38.94;34.74;100118.52;90101;1271;94128;-60
2022/08/19 07:44:03;;;;;;;8.90;6.70;;;;;;;38.94;34.30;100121.13;90100;1270;79538;-60
2022/08/19 07:46:13;;;;;;;10.10;7.60;;;;;;;39.03;34.15;100125.73;90132;1270;82436;-60
2022/08/19 07:48:25;;;;;;;8.90;6.70;;;;;;;38.97;33.94;100131.40;90112;1271;99044;-60
2022/08/19 07:50:34;;;;;;;7.40;5.80;;;;;;;38.77;34.10;100132.28;90131;1270;87320;-60
2022/08/19 07:52:44;;;;;;;8.70;6.40;;;;;;;38.43;34.70;100133.91;90067;1271;93004;-60
2022/08/19 07:54:52;;;;;;;8.80;6.60;;;;;;;38.15;34.97;100131.08;90089;1270;79102;-60
2022/08/19 07:57:01;;;;;;;9.10;6.60;;;;;;;37.81;34.88;100134.46;90120;1270;80867;-60
2022/08/19 07:59:11;;;;;;;11.10;6.90;;;;;;;37.60;35.11;100136.77;90107;1272;98443;-60
2022/08/19 08:01:24;;;;;;;9.60;6.40;;;;;;;37.24;35.32;100130.21;90115;1272;88671;-60
2022/08/19 08:10:51;;;;;;;9.20;6.40;;;;;;;37.58;35.92;100127.46;90104;1270;98091;-60
2022/08/19 08:13:00;;;;;;;10.10;7.10;;;;;;;37.68;36.18;100126.10;90120;1271;88116;-60
2022/08/19 08:15:15;;;;;;;13.20;6.60;;;;;;;37.75;35.68;100125.27;90106;1271;94623;-60
2022/08/19 08:17:27;;;;;;;8.10;6.70;;;;;;;37.89;35.65;100123.65;90114;1270;78020;-60
2022/08/19 08:19:37;;;;;;;10.10;6.70;;;;;;;37.99;35.52;100127.76;90138;1270;82479;-60
2022/08/19 08:21:45;;;;;;;8.70;6.90;;;;;;;38.15;35.92;100132.44;90123;1270;98236;-60
2022/08/19 08:23:55;;;;;;;8.00;6.80;;;;;;;38.38;35.73;100137.79;90083;1271;88885;-60
2022/08/19 08:26:04;;;;;;;8.30;7.00;;;;;;;38.62;35.19;100139.26;90088;1271;95016;-60
2022/08/19 08:28:13;;;;;;;11.40;7.00;;;;;;;38.83;34.76;100136.48;90085;1272;78963;-60
2022/08/19 08:30:24;;;;;;;8.80;7.50;;;;;;;38.82;34.89;100138.98;90102;1271;82626;-60
2022/08/19 08:32:33;;;;;;;8.60;7.10;;;;;;;38.99;34.30;100135.13;90118;1270;98178;-60
2022/08/19 08:34:42;;;;;;;8.60;6.70;;;;;;;39.09;34.76;100132.98;90134;1270;88496;-60
2022/08/19 08:36:51;;;;;;;10.20;7.20;;;;;;;39.19;35.22;100135.54;90097;1270;94017;-60
2022/08/19 08:39:01;;;;;;;7.20;6.50;;;;;;;39.45;35.08;100134.99;90077;1271;80583;-60
2022/08/19 08:41:21;;;;;;;7.40;6.60;;;;;;;39.62;34.88;100133.23;90112;1270;81873;-60
2022/08/19 08:43:34;;;;;;;9.40;6.70;;;;;;;39.54;32.68;100130.15;90129;1270;97960;-60
2022/08/19 08:45:55;;;;;;;7.90;6.60;;;;;;;39.16;32.85;100128.48;90084;1272;89000;-60
2022/08/19 08:48:16;;;;;;;10.00;6.60;;;;;;;38.72;33.11;100134.31;90093;1272;94914;-60
2022/08/19 08:50:30;;;;;;;7.70;6.50;;;;;;;38.58;33.56;100138.15;90112;1271;80019;-60
2022/08/19 08:52:43;;;;;;;7.40;6.70;;;;;;;38.60;33.53;100138.11;90143;1270;80535;-60
2022/08/19 08:54:56;;;;;;;7.30;6.40;;;;;;;38.52;33.57;100148.16;90135;1271;99416;-60
2022/08/19 08:57:11;;;;;;;8.00;6.60;;;;;;;38.57;33.92;100153.00;90121;1271;88106;-60
2022/08/19 08:59:27;;;;;;;7.50;6.40;;;;;;;38.85;34.12;100152.23;90099;1271;95129;-60
2022/08/19 09:01:36;;;;;;;7.70;6.40;;;;;;;39.05;34.83;100154.66;90089;1272;80772;-60
2022/08/19 09:03:46;;;;;;;8.80;7.00;;;;;;;39.23;34.18;100150.11;90118;1271;82392;-60
2022/08/19 09:06:03;;;;;;;7.80;6.50;;;;;;;39.25;33.30;100147.40;90128;1271;97298;-59
2022/08/19 09:08:19;;;;;;;9.00;6.70;;;;;;;39.20;32.90;100150.64;90110;1271;89295;-60
2022/08/19 09:10:33;;;;;;;7.20;6.40;;;;;;;38.65;32.92;100150.67;90105;1271;94662;-60
2022/08/19 09:12:54;;;;;;;9.00;6.80;;;;;;;38.47;33.57;100156.80;90084;1272;80192;-59
2022/08/19 09:15:09;;;;;;;7.20;6.40;;;;;;;38.44;33.33;100151.69;90128;1272;81724;-59
2022/08/19 09:17:19;;;;;;;9.50;6.90;;;;;;;38.18;33.20;100152.98;90107;1271;98647;-59
2022/08/19 09:19:27;;;;;;;8.70;7.10;;;;;;;37.88;33.87;100150.63;90116;1271;87400;-60
2022/08/19 09:21:38;;;;;;;9.50;7.30;;;;;;;37.74;34.81;100158.52;90096;1271;95123;-59
2022/08/19 09:23:47;;;;;;;8.20;7.00;;;;;;;37.51;34.81;100161.02;90109;1271;79048;-59
2022/08/19 09:25:55;;;;;;;9.10;7.00;;;;;;;37.36;35.23;100159.02;90131;1271;82885;-59
2022/08/19 09:28:05;;;;;;;12.00;7.10;;;;;;;37.32;35.50;100155.25;90136;1270;100012;-59
2022/08/19 09:30:19;;;;;;;11.90;6.70;;;;;;;37.13;35.68;100153.84;90110;1271;88547;-59
2022/08/19 09:32:27;;;;;;;11.30;6.90;;;;;;;36.58;35.97;100153.14;90111;1271;95572;-59
2022/08/19 09:34:37;;;;;;;10.10;7.60;;;;;;;36.37;36.82;100157.24;90084;1272;79727;-59
2022/08/19 09:36:46;;;;;;;11.00;7.60;;;;;;;36.30;37.27;100157.56;90016;1273;83404;-59
2022/08/19 09:38:55;;;;;;;8.70;7.00;;;;;;;36.15;37.00;100162.11;90103;1271;99482;-59
2022/08/19 09:41:12;;;;;;;9.70;7.20;;;;;;;35.89;37.41;100161.70;90136;1271;88985;-59
2022/08/19 09:43:21;;;;;;;7.90;6.70;;;;;;;35.79;38.05;100156.40;90091;1271;95617;-59
2022/08/19 09:45:30;;;;;;;11.70;7.20;;;;;;;35.86;38.24;100156.41;90081;1271;80230;-59
2022/08/19 09:47:39;;;;;;;8.10;6.70;;;;;;;35.83;38.12;100160.19;90112;1271;82155;-60
2022/08/19 09:49:48;;;;;;;7.40;6.70;;;;;;;35.77;37.99;100162.28;90136;1270;99355;-59
2022/08/19 09:51:57;;;;;;;8.80;6.20;;;;;;;35.60;37.44;100166.65;90110;1270;89292;-59
2022/08/19 09:54:07;;;;;;;8.70;7.00;;;;;;;35.43;37.81;100162.44;90084;1272;94450;-59
2022/08/19 09:56:17;;;;;;;9.40;6.00;;;;;;;35.40;37.85;100165.55;90130;1270;79679;-60
2022/08/19 09:58:27;;;;;;;10.30;6.30;;;;;;;35.21;37.89;100165.75;90131;1270;82665;-60
2022/08/19 10:00:37;;;;;;;13.30;6.90;;;;;;;34.74;37.24;100167.18;90116;1270;98127;-60
2022/08/19 10:02:46;;;;;;;12.70;6.50;;;;;;;34.34;37.71;100159.67;90114;1271;88263;-60
2022/08/19 10:07:21;;;;;;;10.90;6.40;;;;;;;34.05;38.18;100155.77;90098;1271;80018;-59
2022/08/19 10:09:30;;;;;;;9.00;6.70;;;;;;;33.94;38.56;100149.56;90124;1270;82043;-59
2022/08/19 10:11:40;;;;;;;8.90;7.00;;;;;;;33.99;39.01;100147.40;90125;1271;99730;-59
2022/08/19 10:13:50;;;;;;;9.20;6.40;;;;;;;34.07;39.18;100145.52;90125;1270;89054;-60
2022/08/19 10:16:03;;;;;;;7.50;6.60;;;;;;;34.12;38.91;100145.20;90133;1271;95008;-59
2022/08/19 10:18:12;;;;;;;10.80;7.00;;;;;;;34.08;38.72;100144.35;90112;1270;79395;-59
2022/08/19 10:20:21;;;;;;;7.70;6.80;;;;;;;34.07;39.04;100148.23;90118;1271;81803;-59